^^
Your Local Weather - Clay, NY Station Historical Data
Daily Summary for July 24, 2017 Units:  English    Metric   Both
« Previous Day
Next Day »
Daily Weekly Monthly Yearly Custom
  High: Low: Average:
Temperature: 71.4 °F 60.4 °F 66 °F
Dew Point: 65.5 °F 57.8 °F 62 °F
Humidity: 93% 74% 87%
Wind Speed: 5.0mph 0.0mph 1.6mph
Wind Gust: 10.0mph - -
Wind- - ESE
Pressure: 29.85 in 29.66 in -
Precipitation: 0.49 in    
Historical Graphs
 
 
Tabular Data for July 24, 2017
Time Temperature Dew Point Pressure Wind Wind Speed Wind Gust Humidity Rainfall Rate (Hourly) solar
00:02 70.7 °F 64.6 °F 29.69 in NNE 1.0 mph 3.0 mph 81% 0.00 in 0 W/m2
00:08 70.6 °F 64.5 °F 29.69 in SSE 2.0 mph 3.0 mph 81% 0.00 in 0 W/m2
00:14 70.5 °F 64.4 °F 29.69 in East 1.0 mph 1.0 mph 81% 0.00 in 0 W/m2
00:20 70.4 °F 64.3 °F 29.70 in SE 1.0 mph 1.0 mph 81% 0.00 in 0 W/m2
00:24 70.3 °F 64.5 °F 29.69 in SE 1.0 mph 2.0 mph 82% 0.00 in 0 W/m2
00:30 70.3 °F 64.5 °F 29.69 in East 1.0 mph 1.0 mph 82% 0.00 in 0 W/m2
00:36 70.3 °F 64.5 °F 29.69 in SE 1.0 mph 3.0 mph 82% 0.00 in 0 W/m2
00:42 70.2 °F 64.4 °F 29.69 in East 1.0 mph 1.0 mph 82% 0.00 in 0 W/m2
00:48 70.1 °F 64.3 °F 29.69 in Calm   1.0 mph 82% 0.00 in 0 W/m2
00:54 70.1 °F 64.3 °F 29.69 in SE 1.0 mph 1.0 mph 82% 0.00 in 0 W/m2
01:00 69.9 °F 64.2 °F 29.69 in East 1.0 mph 1.0 mph 82% 0.00 in 0 W/m2
01:06 69.8 °F 64.4 °F 29.69 in ESE 1.0 mph 2.0 mph 83% 0.00 in 0 W/m2
01:12 69.7 °F 64.3 °F 29.69 in Calm     83% 0.00 in 0 W/m2
01:18 69.6 °F 64.2 °F 29.69 in Calm   1.0 mph 83% 0.00 in 0 W/m2
01:24 69.5 °F 64.5 °F 29.69 in Calm     84% 0.00 in 0 W/m2
01:30 69.4 °F 64.4 °F 29.69 in Calm     84% 0.00 in 0 W/m2
01:36 69.3 °F 64.3 °F 29.69 in Calm     84% 0.00 in 0 W/m2
01:42 69.1 °F 64.4 °F 29.68 in Calm   4.0 mph 85% 0.00 in 0 W/m2
01:48 69.1 °F 64.1 °F 29.68 in Calm   4.0 mph 84% 0.00 in 0 W/m2
01:54 69.2 °F 64.2 °F 29.68 in SE 1.0 mph 3.0 mph 84% 0.00 in 0 W/m2
02:00 69.7 °F 64.3 °F 29.68 in SE 1.0 mph 1.0 mph 83% 0.00 in 0 W/m2
02:06 69.8 °F 64.4 °F 29.68 in SE 1.0 mph 1.0 mph 83% 0.00 in 0 W/m2
02:12 69.9 °F 64.5 °F 29.69 in SSE 1.0 mph 1.0 mph 83% 0.00 in 0 W/m2
02:18 70.0 °F 64.6 °F 29.69 in Calm   1.0 mph 83% 0.00 in 0 W/m2
02:24 70.2 °F 64.4 °F 29.69 in SSE 1.0 mph 1.0 mph 82% 0.00 in 0 W/m2
02:30 70.5 °F 64.4 °F 29.69 in SSE 2.0 mph 4.0 mph 81% 0.00 in 0 W/m2
02:36 70.9 °F 64.4 °F 29.69 in SSE 4.0 mph 6.0 mph 80% 0.00 in 0 W/m2
02:42 71.1 °F 64.3 °F 29.68 in ESE 2.0 mph 3.0 mph 79% 0.00 in 0 W/m2
02:48 71.1 °F 63.9 °F 29.69 in South 3.0 mph 5.0 mph 78% 0.00 in 0 W/m2
02:54 71.3 °F 63.7 °F 29.69 in SE 4.0 mph 6.0 mph 77% 0.00 in 0 W/m2
03:00 71.4 °F 63.4 °F 29.69 in SSE 4.0 mph 4.0 mph 76% 0.00 in 0 W/m2
03:06 71.4 °F 63.1 °F 29.69 in SSW 4.0 mph 5.0 mph 75% 0.00 in 0 W/m2
03:12 71.4 °F 63.1 °F 29.69 in SSE 3.0 mph 3.0 mph 75% 0.00 in 0 W/m2
03:18 71.1 °F 63.1 °F 29.69 in South 2.0 mph 4.0 mph 76% 0.00 in 0 W/m2
03:24 70.7 °F 62.0 °F 29.69 in South 4.0 mph 7.0 mph 74% 0.00 in 0 W/m2
03:30 70.3 °F 62.0 °F 29.68 in SSE 5.0 mph 5.0 mph 75% 0.00 in 0 W/m2
03:36 70.0 °F 61.7 °F 29.68 in SE 4.0 mph 6.0 mph 75% 0.00 in 0 W/m2
03:42 69.5 °F 62.0 °F 29.67 in South 3.0 mph 3.0 mph 77% 0.00 in 0 W/m2
03:50 69.1 °F 61.9 °F 29.66 in South 1.0 mph 1.0 mph 78% 0.00 in 0 W/m2
03:56 68.8 °F 62.0 °F 29.67 in Calm   1.0 mph 79% 0.00 in 0 W/m2
04:02 68.5 °F 62.4 °F 29.68 in Calm     81% 0.00 in 0 W/m2
04:08 68.1 °F 62.4 °F 29.68 in Calm     82% 0.00 in 0 W/m2
04:14 67.9 °F 62.5 °F 29.69 in Calm     83% 0.00 in 0 W/m2
04:20 67.7 °F 62.7 °F 29.69 in Calm     84% 0.00 in 0 W/m2
04:26 67.6 °F 61.9 °F 29.69 in SW 1.0 mph 3.0 mph 82% 0.00 in 0 W/m2
04:32 68.0 °F 61.6 °F 29.69 in SSE 2.0 mph 2.0 mph 80% 0.00 in 0 W/m2
04:38 68.2 °F 61.4 °F 29.70 in South 2.0 mph 4.0 mph 79% 0.00 in 0 W/m2
04:44 68.5 °F 61.0 °F 29.69 in South 3.0 mph 4.0 mph 77% 0.00 in 0 W/m2
04:50 68.6 °F 61.1 °F 29.69 in South 3.0 mph 3.0 mph 77% 0.00 in 0 W/m2
04:56 68.4 °F 60.9 °F 29.69 in SSE 2.0 mph 3.0 mph 77% 0.00 in 0 W/m2
05:03 68.4 °F 60.9 °F 29.69 in South 2.0 mph 2.0 mph 77% 0.00 in 0 W/m2
05:08 68.2 °F 60.7 °F 29.69 in South 1.0 mph 3.0 mph 77% 0.00 in 0 W/m2
05:14 68.1 °F 61.0 °F 29.69 in South 1.0 mph 2.0 mph 78% 0.00 in 0 W/m2
05:20 68.0 °F 60.9 °F 29.69 in South 2.0 mph 3.0 mph 78% 0.00 in 0 W/m2
05:26 68.1 °F 61.0 °F 29.70 in SSE 1.0 mph 3.0 mph 78% 0.00 in 0 W/m2
05:32 67.7 °F 61.7 °F 29.70 in Calm   1.0 mph 81% 0.00 in 0 W/m2
05:38 66.6 °F 61.6 °F 29.69 in Calm   1.0 mph 84% 0.00 in 0 W/m2
05:44 66.2 °F 61.6 °F 29.69 in Calm     85% 0.00 in 0 W/m2
05:50 65.6 °F 61.3 °F 29.69 in Calm     86% 0.00 in 0 W/m2
05:56 65.3 °F 61.7 °F 29.69 in Calm     88% 0.00 in 0 W/m2
06:02 64.9 °F 61.6 °F 29.69 in Calm     89% 0.08 in 0 W/m2
06:08 64.9 °F 61.6 °F 29.70 in Calm     89% 0.12 in 0 W/m2
06:14 64.7 °F 61.7 °F 29.71 in Calm     90% 0.08 in 0 W/m2
06:20 64.7 °F 61.7 °F 29.71 in Calm     90% 0.10 in 5 W/m2
06:26 64.6 °F 61.9 °F 29.71 in Calm     91% 0.10 in 7 W/m2
06:32 64.5 °F 61.8 °F 29.71 in Calm     91% 0.05 in 14 W/m2
06:38 64.4 °F 61.7 °F 29.71 in Calm     91% 0.00 in 11 W/m2
06:44 64.4 °F 61.7 °F 29.71 in Calm     91% 0.00 in 14 W/m2
06:50 64.4 °F 61.7 °F 29.71 in ESE 1.0 mph 1.0 mph 91% 0.00 in 14 W/m2
06:56 64.4 °F 62.0 °F 29.71 in ESE 1.0 mph 1.0 mph 92% 0.00 in 12 W/m2
07:02 64.5 °F 62.1 °F 29.70 in Calm   1.0 mph 92% 0.00 in 12 W/m2
07:08 64.7 °F 62.3 °F 29.69 in Calm   2.0 mph 92% 0.00 in 16 W/m2
07:14 64.9 °F 62.5 °F 29.70 in Calm   1.0 mph 92% 0.00 in 14 W/m2
07:20 65.0 °F 62.6 °F 29.71 in Calm     92% 0.00 in 18 W/m2
07:26 65.0 °F 62.6 °F 29.71 in Calm     92% 0.00 in 14 W/m2
07:32 65.1 °F 62.4 °F 29.71 in Calm   1.0 mph 91% 0.00 in 21 W/m2
07:38 65.1 °F 62.4 °F 29.71 in Calm   1.0 mph 91% 0.00 in 33 W/m2
07:44 65.1 °F 62.4 °F 29.72 in Calm     91% 0.00 in 33 W/m2
07:50 65.2 °F 62.5 °F 29.71 in Calm     91% 0.00 in 39 W/m2
07:56 65.4 °F 62.7 °F 29.72 in SE 1.0 mph 2.0 mph 91% 0.00 in 32 W/m2
08:02 65.4 °F 62.7 °F 29.72 in SE 1.0 mph 2.0 mph 91% 0.00 in 40 W/m2
08:08 65.5 °F 62.8 °F 29.72 in SE 1.0 mph 2.0 mph 91% 0.00 in 62 W/m2
08:14 65.6 °F 62.9 °F 29.71 in Calm   1.0 mph 91% 0.00 in 67 W/m2
08:20 65.8 °F 63.1 °F 29.71 in SE 1.0 mph 2.0 mph 91% 0.00 in 105 W/m2
08:26 66.0 °F 63.6 °F 29.70 in SE 1.0 mph 3.0 mph 92% 0.00 in 162 W/m2
08:32 66.4 °F 64.0 °F 29.71 in ESE 1.0 mph 1.0 mph 92% 0.00 in 193 W/m2
08:38 66.5 °F 64.1 °F 29.71 in NNE 1.0 mph 1.0 mph 92% 0.00 in 30 W/m2
08:44 66.4 °F 63.7 °F 29.71 in ENE 1.0 mph 2.0 mph 91% 0.00 in 44 W/m2
08:50 66.4 °F 64.0 °F 29.71 in ENE 1.0 mph 1.0 mph 92% 0.00 in 105 W/m2
08:56 66.5 °F 64.1 °F 29.71 in ENE 1.0 mph 3.0 mph 92% 0.00 in 76 W/m2
09:02 66.5 °F 64.1 °F 29.71 in ESE 1.0 mph 1.0 mph 92% 0.00 in 84 W/m2
09:08 66.6 °F 64.2 °F 29.71 in SE 1.0 mph 3.0 mph 92% 0.00 in 86 W/m2
09:14 66.6 °F 64.2 °F 29.71 in ENE 2.0 mph 3.0 mph 92% 0.00 in 192 W/m2
09:20 66.9 °F 64.5 °F 29.71 in East 1.0 mph 1.0 mph 92% 0.00 in 239 W/m2
09:26 67.3 °F 64.9 °F 29.71 in SSE 2.0 mph 7.0 mph 92% 0.00 in 309 W/m2
09:32 67.6 °F 64.9 °F 29.72 in East 3.0 mph 3.0 mph 91% 0.00 in 243 W/m2
09:44 68.6 °F 65.5 °F 29.71 in ESE 2.0 mph 2.0 mph 90% 0.00 in 202 W/m2
09:50 68.3 °F 64.6 °F 29.71 in SSE 2.0 mph 5.0 mph 88% 0.00 in 46 W/m2
09:56 67.8 °F 64.1 °F 29.72 in ENE 2.0 mph 5.0 mph 88% 0.00 in 21 W/m2
10:02 67.6 °F 63.9 °F 29.72 in SSE 1.0 mph 3.0 mph 88% 0.00 in 37 W/m2
10:08 67.5 °F 63.8 °F 29.72 in SSE 1.0 mph 3.0 mph 88% 0.00 in 33 W/m2
10:14 67.4 °F 64.0 °F 29.73 in SSE 1.0 mph 1.0 mph 89% 0.23 in 26 W/m2
10:20 67.4 °F 64.0 °F 29.73 in SSE 1.0 mph 1.0 mph 89% 0.19 in 16 W/m2
10:26 67.2 °F 64.2 °F 29.73 in Calm   1.0 mph 90% 0.25 in 19 W/m2
10:32 67.1 °F 64.4 °F 29.73 in Calm     91% 0.29 in 21 W/m2
10:38 67.0 °F 64.3 °F 29.73 in Calm     91% 0.15 in 19 W/m2
10:44 67.0 °F 64.3 °F 29.74 in Calm     91% 0.28 in 16 W/m2
10:50 66.9 °F 64.2 °F 29.74 in Calm     91% 1.70 in 49 W/m2
10:56 66.9 °F 64.5 °F 29.74 in ENE 1.0 mph 2.0 mph 92% 0.21 in 54 W/m2
11:02 66.7 °F 64.3 °F 29.74 in ENE 1.0 mph 1.0 mph 92% 0.18 in 46 W/m2
11:08 66.7 °F 64.3 °F 29.74 in ENE 1.0 mph 2.0 mph 92% 0.12 in 30 W/m2
11:14 66.7 °F 64.3 °F 29.74 in NNE 1.0 mph 1.0 mph 92% 0.07 in 69 W/m2
11:20 66.9 °F 64.8 °F 29.73 in Calm     93% 0.41 in 74 W/m2
11:26 66.7 °F 64.6 °F 29.73 in NE 1.0 mph 1.0 mph 93% 0.21 in 81 W/m2
11:32 66.7 °F 64.6 °F 29.73 in ENE 1.0 mph 2.0 mph 93% 0.14 in 123 W/m2
11:38 66.6 °F 64.5 °F 29.74 in NNE 1.0 mph 3.0 mph 93% 0.06 in 53 W/m2
11:44 66.4 °F 64.3 °F 29.74 in North 2.0 mph 2.0 mph 93% 0.04 in 35 W/m2
11:50 65.4 °F 63.0 °F 29.73 in ENE 3.0 mph 5.0 mph 92% 0.00 in 47 W/m2
11:56 64.7 °F 62.3 °F 29.73 in ENE 5.0 mph 8.0 mph 92% 0.00 in 98 W/m2
12:02 64.5 °F 62.1 °F 29.72 in East 4.0 mph 4.0 mph 92% 0.00 in 137 W/m2
12:08 64.8 °F 62.7 °F 29.73 in East 3.0 mph 4.0 mph 93% 0.00 in 253 W/m2
12:12 65.1 °F 63.0 °F 29.72 in East 2.0 mph 3.0 mph 93% 0.00 in 455 W/m2
12:18 65.6 °F 63.5 °F 29.73 in ENE 3.0 mph 5.0 mph 93% 0.00 in 343 W/m2
12:24 65.3 °F 62.9 °F 29.72 in NE 3.0 mph 5.0 mph 92% 0.00 in 424 W/m2
12:30 65.4 °F 63.0 °F 29.72 in East 3.0 mph 3.0 mph 92% 0.00 in 357 W/m2
12:36 65.3 °F 62.9 °F 29.72 in NE 3.0 mph 5.0 mph 92% 0.00 in 352 W/m2
12:42 65.3 °F 62.9 °F 29.72 in East 3.0 mph 8.0 mph 92% 0.00 in 285 W/m2
12:48 65.1 °F 62.4 °F 29.73 in East 4.0 mph 8.0 mph 91% 0.00 in 250 W/m2
12:54 65.2 °F 62.8 °F 29.73 in NE 2.0 mph 3.0 mph 92% 0.00 in 146 W/m2
13:00 64.7 °F 62.0 °F 29.72 in East 2.0 mph 2.0 mph 91% 0.00 in 151 W/m2
13:06 64.7 °F 62.0 °F 29.72 in East 2.0 mph 2.0 mph 91% 0.00 in 127 W/m2
13:12 64.5 °F 61.8 °F 29.73 in ENE 2.0 mph 2.0 mph 91% 0.00 in 86 W/m2
13:18 64.2 °F 61.5 °F 29.74 in ENE 2.0 mph 3.0 mph 91% 0.00 in 51 W/m2
13:24 64.0 °F 61.3 °F 29.73 in East 2.0 mph 3.0 mph 91% 0.00 in 125 W/m2
13:30 64.2 °F 61.5 °F 29.73 in ESE 2.0 mph 2.0 mph 91% 0.00 in 320 W/m2
13:36 64.5 °F 61.8 °F 29.73 in ENE 2.0 mph 7.0 mph 91% 0.00 in 257 W/m2
13:42 64.3 °F 61.3 °F 29.72 in ENE 3.0 mph 7.0 mph 90% 0.00 in 230 W/m2
13:48 64.4 °F 61.4 °F 29.72 in East 3.0 mph 7.0 mph 90% 0.00 in 218 W/m2
13:54 64.5 °F 61.5 °F 29.72 in ENE 4.0 mph 4.0 mph 90% 0.00 in 401 W/m2
14:00 65.1 °F 62.1 °F 29.72 in ESE 4.0 mph 4.0 mph 90% 0.00 in 404 W/m2
14:06 67.0 °F 64.0 °F 29.72 in NE 2.0 mph 4.0 mph 90% 0.00 in 998 W/m2
14:12 67.7 °F 63.7 °F 29.72 in ENE 3.0 mph 3.0 mph 87% 0.00 in 907 W/m2
14:18 67.6 °F 63.6 °F 29.72 in East 3.0 mph 4.0 mph 87% 0.00 in 737 W/m2
14:24 67.5 °F 63.5 °F 29.72 in ESE 2.0 mph 5.0 mph 87% 0.00 in 438 W/m2
14:30 67.1 °F 62.8 °F 29.72 in SE 3.0 mph 3.0 mph 86% 0.00 in 582 W/m2
14:36 68.3 °F 63.6 °F 29.72 in ENE 2.0 mph 7.0 mph 85% 0.00 in 374 W/m2
14:42 69.2 °F 65.2 °F 29.72 in North 3.0 mph 3.0 mph 87% 0.00 in 1009 W/m2
14:48 69.6 °F 64.5 °F 29.72 in North 2.0 mph 3.0 mph 84% 0.00 in 534 W/m2
14:54 69.9 °F 64.5 °F 29.72 in NE 2.0 mph 2.0 mph 83% 0.00 in 735 W/m2
15:00 69.7 °F 64.0 °F 29.72 in North 3.0 mph 3.0 mph 82% 0.00 in 835 W/m2
15:06 69.5 °F 63.8 °F 29.72 in NNE 4.0 mph 8.0 mph 82% 0.00 in 849 W/m2
15:12 70.0 °F 64.2 °F 29.71 in NE 3.0 mph 5.0 mph 82% 0.00 in 578 W/m2
15:18 70.3 °F 64.5 °F 29.71 in ENE 3.0 mph 5.0 mph 82% 0.00 in 819 W/m2
15:24 70.5 °F 64.0 °F 29.71 in ENE 3.0 mph 4.0 mph 80% 0.00 in 817 W/m2
15:30 71.4 °F 64.5 °F 29.72 in NE 3.0 mph 3.0 mph 79% 0.00 in 846 W/m2
15:36 71.2 °F 64.4 °F 29.72 in NNE 4.0 mph 8.0 mph 79% 0.00 in 846 W/m2
15:42 70.9 °F 64.4 °F 29.72 in ENE 4.0 mph 5.0 mph 80% 0.00 in 835 W/m2
15:48 70.3 °F 63.8 °F 29.72 in ENE 4.0 mph 9.0 mph 80% 0.00 in 134 W/m2
15:54 69.2 °F 62.8 °F 29.73 in North 3.0 mph 5.0 mph 80% 0.00 in 58 W/m2
16:00 68.2 °F 62.1 °F 29.74 in North 4.0 mph 4.0 mph 81% 0.00 in 60 W/m2
16:06 67.1 °F 62.4 °F 29.73 in NNW 3.0 mph 5.0 mph 85% 0.26 in 51 W/m2
16:12 66.1 °F 62.1 °F 29.74 in ENE 3.0 mph 4.0 mph 87% 0.10 in 69 W/m2
16:18 65.4 °F 62.1 °F 29.73 in NE 3.0 mph 7.0 mph 89% 0.08 in 132 W/m2
16:24 65.1 °F 61.8 °F 29.74 in ENE 3.0 mph 10.0 mph 89% 0.06 in 185 W/m2
16:30 65.6 °F 62.6 °F 29.74 in ENE 3.0 mph 7.0 mph 90% 0.04 in 673 W/m2
16:36 66.3 °F 63.3 °F 29.73 in NE 5.0 mph 9.0 mph 90% 0.00 in 387 W/m2
16:42 66.7 °F 63.4 °F 29.73 in East 4.0 mph 9.0 mph 89% 0.00 in 74 W/m2
16:48 66.0 °F 62.3 °F 29.74 in East 4.0 mph 9.0 mph 88% 0.00 in 100 W/m2
16:54 65.8 °F 62.5 °F 29.74 in East 2.0 mph 3.0 mph 89% 0.00 in 93 W/m2
17:00 65.4 °F 62.1 °F 29.73 in NNE 3.0 mph 7.0 mph 89% 0.00 in 69 W/m2
17:06 65.1 °F 61.8 °F 29.73 in NE 4.0 mph 7.0 mph 89% 0.00 in 54 W/m2
17:12 65.0 °F 61.7 °F 29.74 in East 3.0 mph 5.0 mph 89% 0.00 in 76 W/m2
17:18 65.0 °F 61.7 °F 29.74 in East 2.0 mph 5.0 mph 89% 0.00 in 63 W/m2
17:24 64.9 °F 61.6 °F 29.75 in ENE 2.0 mph 3.0 mph 89% 0.00 in 105 W/m2
17:26 64.9 °F 61.6 °F 29.75 in East 2.0 mph 3.0 mph 89% 0.00 in 148 W/m2
17:32 65.0 °F 61.7 °F 29.75 in NE 3.0 mph 4.0 mph 89% 0.00 in 158 W/m2
17:38 65.1 °F 61.5 °F 29.76 in NNE 3.0 mph 5.0 mph 88% 0.00 in 118 W/m2
17:44 65.2 °F 61.6 °F 29.77 in SSE 1.0 mph 3.0 mph 88% 0.00 in 84 W/m2
17:50 65.2 °F 61.6 °F 29.76 in NNE 2.0 mph 2.0 mph 88% 0.00 in 116 W/m2
17:56 65.3 °F 61.7 °F 29.76 in NE 3.0 mph 4.0 mph 88% 0.00 in 163 W/m2
18:02 65.5 °F 61.5 °F 29.76 in NE 3.0 mph 4.0 mph 87% 0.00 in 192 W/m2
18:08 65.7 °F 61.4 °F 29.77 in NE 4.0 mph 7.0 mph 86% 0.00 in 183 W/m2
18:14 65.8 °F 61.2 °F 29.77 in ENE 5.0 mph 7.0 mph 85% 0.00 in 155 W/m2
18:20 65.7 °F 61.1 °F 29.77 in East 4.0 mph 4.0 mph 85% 0.00 in 91 W/m2
18:26 65.5 °F 60.5 °F 29.77 in East 3.0 mph 5.0 mph 84% 0.00 in 56 W/m2
18:32 64.9 °F 59.9 °F 29.77 in East 3.0 mph 7.0 mph 84% 0.00 in 70 W/m2
18:38 64.4 °F 59.8 °F 29.78 in NE 4.0 mph 7.0 mph 85% 0.00 in 116 W/m2
18:44 64.2 °F 59.6 °F 29.78 in East 4.0 mph 9.0 mph 85% 0.00 in 113 W/m2
18:50 64.1 °F 59.5 °F 29.78 in NE 4.0 mph 4.0 mph 85% 0.00 in 107 W/m2
18:56 64.1 °F 59.5 °F 29.78 in ENE 3.0 mph 4.0 mph 85% 0.00 in 95 W/m2
19:08 63.9 °F 59.6 °F 29.79 in North 4.0 mph 4.0 mph 86% 0.00 in 37 W/m2
19:14 63.7 °F 59.4 °F 29.79 in ESE 2.0 mph 4.0 mph 86% 0.00 in 35 W/m2
19:20 63.6 °F 59.3 °F 29.79 in ENE 2.0 mph 4.0 mph 86% 0.00 in 37 W/m2
19:26 63.4 °F 59.1 °F 29.79 in ENE 2.0 mph 4.0 mph 86% 0.00 in 37 W/m2
19:32 63.4 °F 59.5 °F 29.79 in SE 1.0 mph 3.0 mph 87% 0.00 in 30 W/m2
19:38 63.1 °F 59.2 °F 29.80 in East 2.0 mph 3.0 mph 87% 0.00 in 30 W/m2
19:44 63.1 °F 59.2 °F 29.80 in East 2.0 mph 3.0 mph 87% 0.00 in 19 W/m2
19:50 62.9 °F 59.0 °F 29.80 in ESE 2.0 mph 2.0 mph 87% 0.00 in 19 W/m2
19:56 62.9 °F 59.0 °F 29.81 in ESE 1.0 mph 3.0 mph 87% 0.00 in 9 W/m2
20:02 62.8 °F 58.9 °F 29.81 in ENE 1.0 mph 3.0 mph 87% 0.00 in 11 W/m2
20:08 62.7 °F 58.8 °F 29.82 in NNE 2.0 mph 3.0 mph 87% 0.00 in 14 W/m2
20:14 62.6 °F 58.7 °F 29.81 in ESE 2.0 mph 2.0 mph 87% 0.00 in 9 W/m2
20:20 62.5 °F 58.6 °F 29.82 in ESE 1.0 mph 1.0 mph 87% 0.00 in 5 W/m2
20:26 62.4 °F 58.8 °F 29.82 in Calm   2.0 mph 88% 0.00 in 5 W/m2
20:32 62.2 °F 58.6 °F 29.82 in SSE 1.0 mph 4.0 mph 88% 0.00 in 0 W/m2
20:38 62.1 °F 58.5 °F 29.82 in SSE 1.0 mph 4.0 mph 88% 0.00 in 0 W/m2
20:40 62.1 °F 58.5 °F 29.82 in SSE 1.0 mph 1.0 mph 88% 0.00 in 0 W/m2
20:46 61.9 °F 58.3 °F 29.82 in Calm   1.0 mph 88% 0.00 in 0 W/m2
20:52 61.7 °F 58.4 °F 29.82 in SSE 1.0 mph 1.0 mph 89% 0.00 in 0 W/m2
20:58 61.6 °F 58.3 °F 29.82 in SSE 1.0 mph 1.0 mph 89% 0.00 in 0 W/m2
21:04 61.5 °F 58.2 °F 29.82 in SSE 1.0 mph 1.0 mph 89% 0.00 in 0 W/m2
21:10 61.4 °F 58.1 °F 29.82 in SSE 1.0 mph 1.0 mph 89% 0.00 in 0 W/m2
21:16 61.2 °F 57.9 °F 29.82 in Calm   2.0 mph 89% 0.00 in 0 W/m2
21:22 61.1 °F 57.8 °F 29.82 in Calm   1.0 mph 89% 0.00 in 0 W/m2
21:28 61.0 °F 58.0 °F 29.83 in SSE 1.0 mph 1.0 mph 90% 0.00 in 0 W/m2
21:34 60.9 °F 57.9 °F 29.83 in SSE 1.0 mph 1.0 mph 90% 0.00 in 0 W/m2
21:40 61.0 °F 58.0 °F 29.83 in Calm     90% 0.00 in 0 W/m2
21:46 60.9 °F 57.9 °F 29.83 in Calm     90% 0.00 in 0 W/m2
21:52 60.9 °F 57.9 °F 29.83 in Calm     90% 0.00 in 0 W/m2
21:58 61.0 °F 58.0 °F 29.84 in Calm     90% 0.00 in 0 W/m2
22:04 61.0 °F 58.4 °F 29.84 in Calm     91% 0.00 in 0 W/m2
22:10 61.0 °F 58.4 °F 29.84 in Calm     91% 0.00 in 0 W/m2
22:16 61.0 °F 58.4 °F 29.84 in Calm     91% 0.00 in 0 W/m2
22:22 61.0 °F 58.4 °F 29.84 in Calm     91% 0.00 in 0 W/m2
22:28 61.0 °F 58.4 °F 29.84 in Calm   2.0 mph 91% 0.00 in 0 W/m2
22:34 61.0 °F 58.4 °F 29.84 in Calm     91% 0.00 in 0 W/m2
22:40 61.0 °F 58.4 °F 29.84 in Calm     91% 0.00 in 0 W/m2
22:46 60.9 °F 58.3 °F 29.84 in Calm   1.0 mph 91% 0.00 in 0 W/m2
22:52 60.9 °F 58.3 °F 29.84 in Calm   1.0 mph 91% 0.00 in 0 W/m2
22:58 60.9 °F 58.3 °F 29.84 in East 1.0 mph 1.0 mph 91% 0.00 in 0 W/m2
23:04 60.8 °F 58.2 °F 29.84 in East 1.0 mph 1.0 mph 91% 0.00 in 0 W/m2
23:10 60.8 °F 58.2 °F 29.84 in Calm     91% 0.00 in 0 W/m2
23:16 60.8 °F 58.2 °F 29.84 in Calm     91% 0.00 in 0 W/m2
23:22 60.7 °F 58.1 °F 29.85 in Calm     91% 0.00 in 0 W/m2
23:28 60.7 °F 58.1 °F 29.85 in Calm     91% 0.00 in 0 W/m2
23:34 60.7 °F 58.1 °F 29.85 in Calm   2.0 mph 91% 0.00 in 0 W/m2
23:40 60.7 °F 58.1 °F 29.85 in Calm     91% 0.00 in 0 W/m2
23:46 60.5 °F 57.9 °F 29.85 in Calm   2.0 mph 91% 0.00 in 0 W/m2
23:52 60.4 °F 57.8 °F 29.85 in Calm     91% 0.00 in 0 W/m2
23:58 60.4 °F 57.8 °F 29.85 in Calm     91% 0.00 in 0 W/m2
Country Meadow, Clay, NY, USA
Compliments of Weather Underground - 2 mb